Time;durP1;ratioP1;P1;durP2;ratioP2;P2;SDS_P1;SDS_P2;PMS_P1;PMS_P2;Temp;Humidity;BMP_temperature;BMP_pressure;BME280_temperature;BME280_humidity;BME280_pressure;Samples;Min_cycle;Max_cycle;Signal;HPM_P1;HPM_P2
2023/12/07 00:01:34;;;;;;;49.35;23.30;;;;;;;-0.76;100.00;101682.47;5015399;28;20034;-74
2023/12/07 00:04:00;;;;;;;47.80;23.23;;;;;;;-0.79;100.00;101682.63;5006076;28;20044;-74
2023/12/07 00:06:26;;;;;;;49.95;22.25;;;;;;;-0.85;100.00;101686.25;5009657;28;20060;-73
2023/12/07 00:08:52;;;;;;;49.00;22.38;;;;;;;-0.85;100.00;101695.56;5002718;28;20527;-74
2023/12/07 00:11:17;;;;;;;44.67;21.85;;;;;;;-0.88;100.00;101694.00;5001901;28;20128;-74
2023/12/07 00:13:43;;;;;;;52.20;22.95;;;;;;;-0.90;100.00;101689.88;5008183;28;20030;-73
2023/12/07 00:16:08;;;;;;;53.53;24.08;;;;;;;-0.92;100.00;101683.97;5009028;28;20501;-73
2023/12/07 00:18:33;;;;;;;53.58;24.45;;;;;;;-0.88;100.00;101678.72;5005094;28;20105;-74
2023/12/07 00:20:59;;;;;;;52.08;24.00;;;;;;;-0.90;100.00;101682.22;5003250;28;20488;-74
2023/12/07 00:23:24;;;;;;;51.88;23.27;;;;;;;-0.95;100.00;101672.19;5010445;28;20030;-74
2023/12/07 00:25:50;;;;;;;50.65;24.40;;;;;;;-0.98;100.00;101675.69;5010995;28;20045;-74
2023/12/07 00:28:16;;;;;;;51.42;22.85;;;;;;;-1.00;100.00;101677.47;5010639;28;20224;-74
2023/12/07 00:30:42;;;;;;;51.83;23.83;;;;;;;-1.01;100.00;101675.81;5006419;28;20030;-73
2023/12/07 00:33:09;;;;;;;49.05;23.58;;;;;;;-1.03;100.00;101664.88;5007998;28;20026;-73
2023/12/07 00:35:34;;;;;;;49.05;23.38;;;;;;;-1.05;100.00;101676.81;5022985;28;20460;-73
2023/12/07 00:38:00;;;;;;;49.95;23.60;;;;;;;-1.09;100.00;101675.28;5006783;28;20092;-74
2023/12/07 00:40:25;;;;;;;48.97;23.20;;;;;;;-1.12;100.00;101670.31;5004529;28;20038;-73
2023/12/07 00:42:51;;;;;;;47.75;23.42;;;;;;;-1.13;100.00;101672.91;5013875;28;20025;-74
2023/12/07 00:45:16;;;;;;;48.95;23.48;;;;;;;-1.19;100.00;101668.88;5007528;28;20037;-74
2023/12/07 00:47:42;;;;;;;48.42;23.75;;;;;;;-1.23;100.00;101663.06;5014507;28;20667;-74
2023/12/07 00:50:08;;;;;;;47.97;23.73;;;;;;;-1.26;100.00;101668.31;5004283;28;20050;-74
2023/12/07 00:52:33;;;;;;;48.65;23.52;;;;;;;-1.28;100.00;101676.88;5006178;28;20037;-74
2023/12/07 00:54:59;;;;;;;48.17;23.05;;;;;;;-1.32;100.00;101680.41;5008102;28;20030;-73
2023/12/07 00:57:24;;;;;;;43.95;21.33;;;;;;;-1.35;100.00;101683.09;4988114;28;20061;-73
2023/12/07 00:59:49;;;;;;;57.67;24.58;;;;;;;-1.37;100.00;101685.69;5008141;28;20382;-73
2023/12/07 01:02:15;;;;;;;45.03;21.77;;;;;;;-1.39;100.00;101677.28;5006718;28;20026;-74
2023/12/07 01:04:40;;;;;;;48.10;21.75;;;;;;;-1.40;100.00;101683.25;5005247;28;20037;-73
2023/12/07 01:07:06;;;;;;;43.08;22.35;;;;;;;-1.41;100.00;101689.25;5000783;28;20042;-74
2023/12/07 01:09:31;;;;;;;52.45;22.80;;;;;;;-1.43;100.00;101686.75;5005043;28;20041;-73
2023/12/07 01:11:58;;;;;;;54.35;22.10;;;;;;;-1.44;100.00;101689.34;5007961;28;20045;-74
2023/12/07 01:14:24;;;;;;;55.55;23.48;;;;;;;-1.47;100.00;101681.81;5004911;28;20065;-74
2023/12/07 01:16:49;;;;;;;52.40;25.33;;;;;;;-1.48;100.00;101683.53;5008495;28;20053;-74
2023/12/07 01:19:15;;;;;;;52.33;23.52;;;;;;;-1.49;100.00;101683.59;5007022;28;20038;-74
2023/12/07 01:21:41;;;;;;;47.78;22.50;;;;;;;-1.52;100.00;101686.25;5006819;28;20052;-74
2023/12/07 01:24:07;;;;;;;55.47;23.92;;;;;;;-1.54;100.00;101685.47;5006306;28;20034;-74
2023/12/07 01:26:33;;;;;;;52.08;23.73;;;;;;;-1.56;100.00;101688.09;5011683;28;20053;-74
2023/12/07 01:28:58;;;;;;;51.65;24.85;;;;;;;-1.59;100.00;101686.47;5001801;28;20029;-73
2023/12/07 01:31:24;;;;;;;45.90;22.45;;;;;;;-1.61;100.00;101687.41;4997786;28;20046;-73
2023/12/07 01:33:49;;;;;;;47.47;24.55;;;;;;;-1.64;100.00;101690.91;4988093;28;20081;-73
2023/12/07 01:36:14;;;;;;;52.58;24.77;;;;;;;-1.66;100.00;101692.66;4985101;28;20030;-74
2023/12/07 01:38:40;;;;;;;53.88;24.33;;;;;;;-1.69;100.00;101697.06;5002988;28;20029;-73
2023/12/07 01:41:05;;;;;;;49.13;23.67;;;;;;;-1.72;100.00;101695.44;4998266;28;20104;-73
2023/12/07 01:43:31;;;;;;;50.67;23.02;;;;;;;-1.73;100.00;101708.19;5005858;28;20025;-74
2023/12/07 01:45:57;;;;;;;50.97;23.85;;;;;;;-1.76;100.00;101714.22;5006049;28;20041;-74
2023/12/07 01:48:28;;;;;;;51.70;22.17;;;;;;;-1.78;100.00;101716.81;5006147;28;20085;-73
2023/12/07 01:50:56;;;;;;;56.22;23.65;;;;;;;-1.80;100.00;101710.97;4997568;28;20069;-74
2023/12/07 01:53:23;;;;;;;55.22;23.83;;;;;;;-1.81;100.00;101716.94;5002199;28;20667;-74
2023/12/07 01:55:50;;;;;;;47.97;22.55;;;;;;;-1.83;100.00;101710.22;4997291;28;20092;-74
2023/12/07 01:58:18;;;;;;;47.47;24.17;;;;;;;-1.84;100.00;101717.03;4997067;28;20026;-75
2023/12/07 02:00:44;;;;;;;55.17;24.23;;;;;;;-1.87;100.00;101709.50;5008696;28;20037;-74
2023/12/07 02:03:09;;;;;;;52.33;23.90;;;;;;;-1.88;100.00;101718.03;5010290;28;20042;-73
2023/12/07 02:05:36;;;;;;;56.78;23.85;;;;;;;-1.89;100.00;101724.00;5014733;28;20123;-74
2023/12/07 02:08:01;;;;;;;56.97;25.27;;;;;;;-1.88;100.00;101723.13;5011158;28;20034;-74
2023/12/07 02:10:27;;;;;;;51.63;23.55;;;;;;;-1.90;100.00;101713.88;5007641;28;20056;-74
2023/12/07 02:12:54;;;;;;;59.92;24.52;;;;;;;-1.91;100.00;101713.03;4992704;28;20042;-74
2023/12/07 02:15:19;;;;;;;54.22;25.02;;;;;;;-1.89;100.00;101707.91;5010594;28;20095;-74
2023/12/07 02:18:11;;;;;;;55.15;26.38;;;;;;;-1.87;100.00;101713.78;5012032;28;20022;-73
2023/12/07 02:20:45;;;;;;;51.63;23.05;;;;;;;-1.89;100.00;101713.00;4994334;28;20037;-73
2023/12/07 02:23:13;;;;;;;56.20;25.60;;;;;;;-1.89;100.00;101716.38;4999945;28;20033;-74
2023/12/07 02:25:53;;;;;;;63.08;25.08;;;;;;;-1.84;100.00;101716.22;5006441;28;20038;-73
2023/12/07 02:28:18;;;;;;;52.63;23.13;;;;;;;-1.86;100.00;101723.91;5004755;28;20048;-74
2023/12/07 02:30:44;;;;;;;71.97;26.60;;;;;;;-1.88;100.00;101725.66;4990159;28;20034;-74
2023/12/07 02:33:10;;;;;;;56.47;25.88;;;;;;;-1.86;100.00;101725.63;5010259;28;20037;-74
2023/12/07 02:35:37;;;;;;;62.42;24.63;;;;;;;-1.88;100.00;101728.22;5008362;28;20118;-73
2023/12/07 02:38:03;;;;;;;60.20;26.05;;;;;;;-1.89;100.00;101729.06;5011554;28;20061;-74
2023/12/07 02:40:30;;;;;;;53.60;25.08;;;;;;;-1.83;100.00;101726.34;5004672;28;20038;-74
2023/12/07 02:42:57;;;;;;;57.97;25.80;;;;;;;-1.88;100.00;101728.22;5004736;28;20041;-74
2023/12/07 02:45:22;;;;;;;56.85;23.88;;;;;;;-1.91;100.00;101720.69;5006312;28;20038;-73
2023/12/07 02:47:48;;;;;;;50.42;23.33;;;;;;;-1.93;100.00;101717.34;5008519;28;20535;-73
2023/12/07 02:50:14;;;;;;;54.25;24.40;;;;;;;-1.91;100.00;101715.59;5005618;28;20057;-74
2023/12/07 02:52:40;;;;;;;59.47;25.13;;;;;;;-1.93;100.00;101711.44;5022151;28;20084;-74
2023/12/07 02:55:06;;;;;;;53.05;22.83;;;;;;;-1.94;100.00;101705.53;5007547;28;20409;-74
2023/12/07 02:57:33;;;;;;;61.33;26.10;;;;;;;-1.96;100.00;101705.59;5005943;28;20037;-74
2023/12/07 02:59:59;;;;;;;56.75;25.80;;;;;;;-1.89;100.00;101702.81;5002632;28;20486;-74
2023/12/07 03:02:25;;;;;;;56.05;23.58;;;;;;;-1.89;100.00;101703.66;5001701;28;20084;-73
2023/12/07 03:04:51;;;;;;;64.38;27.98;;;;;;;-1.85;100.00;101702.66;5021133;28;20053;-73
2023/12/07 03:07:16;;;;;;;68.82;28.17;;;;;;;-1.81;100.00;101708.47;4991452;28;20405;-74
2023/12/07 03:09:42;;;;;;;71.03;29.13;;;;;;;-1.74;100.00;101716.72;5001324;28;20503;-74
2023/12/07 03:12:08;;;;;;;70.43;27.60;;;;;;;-1.64;100.00;101718.91;4988704;28;20046;-73
2023/12/07 03:14:33;;;;;;;70.38;27.33;;;;;;;-1.64;100.00;101718.03;5003707;28;20045;-74
2023/12/07 03:16:58;;;;;;;71.78;30.25;;;;;;;-1.53;100.00;101708.31;5001037;28;20030;-74
2023/12/07 03:19:24;;;;;;;79.13;31.20;;;;;;;-1.39;100.00;101708.66;5006061;28;20045;-74
2023/12/07 03:21:49;;;;;;;98.25;34.65;;;;;;;-1.21;100.00;101702.03;5010491;28;20054;-75
2023/12/07 03:24:15;;;;;;;95.70;32.58;;;;;;;-1.14;100.00;101702.63;4987001;28;20030;-74
2023/12/07 03:26:40;;;;;;;97.93;34.83;;;;;;;-1.08;100.00;101706.66;4997463;28;20042;-74
2023/12/07 03:29:07;;;;;;;95.30;34.33;;;;;;;-1.16;100.00;101699.31;5008376;28;20037;-73
2023/12/07 03:31:33;;;;;;;92.80;33.17;;;;;;;-1.18;100.00;101708.72;5012503;28;20029;-74
2023/12/07 03:34:00;;;;;;;92.72;33.55;;;;;;;-1.24;100.00;101707.25;4990163;28;20036;-74
2023/12/07 03:36:26;;;;;;;95.75;31.67;;;;;;;-1.23;100.00;101706.34;5005929;28;20125;-74
2023/12/07 03:38:52;;;;;;;93.72;34.95;;;;;;;-1.25;100.00;101708.13;5006253;28;20022;-73
2023/12/07 03:41:17;;;;;;;102.53;34.90;;;;;;;-1.21;100.00;101711.38;4988962;28;20370;-73
2023/12/07 03:43:42;;;;;;;91.65;32.97;;;;;;;-1.21;100.00;101712.19;5004158;28;20460;-74
2023/12/07 03:46:08;;;;;;;116.72;34.75;;;;;;;-1.12;100.00;101708.50;5001953;28;20041;-74
2023/12/07 03:48:34;;;;;;;144.07;35.83;;;;;;;-0.99;100.00;101713.94;5004765;28;20034;-73
2023/12/07 03:50:59;;;;;;;106.47;35.72;;;;;;;-1.00;100.00;101717.38;5009252;28;20100;-74
2023/12/07 03:53:25;;;;;;;110.97;36.15;;;;;;;-1.00;100.00;101723.31;5003573;28;20569;-74
2023/12/07 03:55:50;;;;;;;126.55;35.58;;;;;;;-1.01;100.00;101725.91;5000568;28;20034;-74
2023/12/07 03:58:16;;;;;;;110.78;32.67;;;;;;;-1.04;100.00;101723.47;5010604;28;20037;-75
2023/12/07 04:00:42;;;;;;;144.10;35.13;;;;;;;-1.06;100.00;101730.34;4991317;28;20115;-74
2023/12/07 04:03:07;;;;;;;107.63;34.17;;;;;;;-0.98;100.00;101733.41;5003127;28;20030;-74
2023/12/07 04:05:33;;;;;;;92.55;33.38;;;;;;;-0.96;100.00;101741.84;4999898;28;20511;-74
2023/12/07 04:07:58;;;;;;;146.63;34.42;;;;;;;-0.94;100.00;101731.59;5001710;28;20029;-74
2023/12/07 04:10:24;;;;;;;88.05;31.65;;;;;;;-0.95;100.00;101735.03;5016395;28;20038;-75
2023/12/07 04:12:49;;;;;;;101.25;31.98;;;;;;;-0.92;100.00;101738.31;5002631;28;20046;-74
2023/12/07 04:15:15;;;;;;;82.45;29.95;;;;;;;-0.92;100.00;101737.44;4999304;28;20088;-75
2023/12/07 04:17:40;;;;;;;97.10;31.10;;;;;;;-0.87;100.00;101741.47;5002886;28;20049;-75
2023/12/07 04:20:07;;;;;;;85.43;30.23;;;;;;;-0.87;100.00;101740.66;5005706;28;20037;-74
2023/12/07 04:22:33;;;;;;;94.65;30.42;;;;;;;-0.88;100.00;101754.28;5003955;28;20034;-74
2023/12/07 04:24:58;;;;;;;108.00;33.38;;;;;;;-0.87;100.00;101755.94;5002294;28;20080;-74
2023/12/07 04:27:24;;;;;;;231.23;38.22;;;;;;;-0.76;100.00;101758.91;5000578;28;20041;-74
2023/12/07 04:29:49;;;;;;;112.45;32.10;;;;;;;-0.78;100.00;101763.22;5005891;28;20041;-75
2023/12/07 04:32:15;;;;;;;84.07;31.20;;;;;;;-0.81;100.00;101760.78;4992207;28;20023;-75
2023/12/07 04:34:40;;;;;;;100.43;32.83;;;;;;;-0.76;100.00;101760.63;5015028;28;20519;-74
2023/12/07 04:37:05;;;;;;;88.30;29.55;;;;;;;-0.82;100.00;101762.50;4998681;28;20050;-74
2023/12/07 04:39:31;;;;;;;89.75;30.23;;;;;;;-0.85;100.00;101761.78;5007500;28;20034;-74
2023/12/07 04:41:56;;;;;;;130.43;32.58;;;;;;;-0.87;100.00;101764.41;5010679;28;20042;-75
2023/12/07 04:44:22;;;;;;;87.63;28.15;;;;;;;-0.87;100.00;101771.22;4995703;28;20033;-75
2023/12/07 04:46:47;;;;;;;101.55;32.13;;;;;;;-0.84;100.00;101779.56;5010042;28;20037;-74
2023/12/07 04:49:13;;;;;;;98.32;33.78;;;;;;;-0.84;100.00;101788.94;5004921;28;20030;-74
2023/12/07 04:51:38;;;;;;;97.10;33.97;;;;;;;-0.83;100.00;101795.69;5010080;28;20030;-75
2023/12/07 04:54:04;;;;;;;84.25;30.48;;;;;;;-0.83;100.00;101804.16;5010759;28;20507;-75
2023/12/07 04:56:29;;;;;;;81.10;28.42;;;;;;;-0.82;100.00;101803.25;5008615;28;20416;-75
2023/12/07 04:58:54;;;;;;;79.63;26.92;;;;;;;-0.81;100.00;101794.75;4988557;28;20034;-75
2023/12/07 05:01:20;;;;;;;95.43;29.80;;;;;;;-0.79;100.00;101798.06;5011785;28;20064;-75
2023/12/07 05:03:45;;;;;;;99.22;28.52;;;;;;;-0.78;100.00;101801.44;4991730;28;20579;-75
2023/12/07 05:06:11;;;;;;;81.90;26.02;;;;;;;-0.75;100.00;101808.13;5009320;28;20528;-75
2023/12/07 05:08:38;;;;;;;74.45;24.60;;;;;;;-0.74;100.00;101807.25;5009412;28;20127;-75
2023/12/07 05:11:04;;;;;;;99.85;28.75;;;;;;;-0.75;100.00;101811.53;5005427;28;20137;-75
2023/12/07 05:13:29;;;;;;;73.07;25.63;;;;;;;-0.72;100.00;101806.28;4991281;28;20548;-75
2023/12/07 05:15:55;;;;;;;79.70;26.20;;;;;;;-0.69;100.00;101811.28;5005156;28;20042;-74
2023/12/07 05:18:20;;;;;;;73.90;24.10;;;;;;;-0.68;100.00;101807.84;5008913;28;20029;-75
2023/12/07 05:20:46;;;;;;;145.98;31.80;;;;;;;-0.52;100.00;101814.91;5010489;28;20045;-75
2023/12/07 05:23:11;;;;;;;83.53;26.27;;;;;;;-0.56;100.00;101810.81;5006378;28;20053;-74
2023/12/07 05:25:37;;;;;;;100.38;29.90;;;;;;;-0.55;100.00;101822.66;5009133;28;20122;-75
2023/12/07 05:28:03;;;;;;;82.10;25.85;;;;;;;-0.58;100.00;101810.88;4992818;28;20025;-74
2023/12/07 05:30:28;;;;;;;75.75;23.60;;;;;;;-0.61;100.00;101808.44;5008344;28;20034;-74
2023/12/07 05:32:54;;;;;;;136.60;27.92;;;;;;;-0.56;100.00;101805.72;5006448;28;20038;-74
2023/12/07 05:35:20;;;;;;;79.13;25.30;;;;;;;-0.59;100.00;101809.19;5007392;28;20044;-74
2023/12/07 05:37:45;;;;;;;104.45;27.77;;;;;;;-0.57;100.00;101811.69;5012270;28;20014;-74
2023/12/07 05:40:12;;;;;;;89.75;26.83;;;;;;;-0.52;100.00;101807.25;5006462;28;20447;-75
2023/12/07 05:42:38;;;;;;;98.95;28.98;;;;;;;-0.51;100.00;101799.56;5010626;28;20095;-75
2023/12/07 05:45:04;;;;;;;93.78;26.70;;;;;;;-0.49;100.00;101792.69;5009191;28;20045;-75
2023/12/07 05:47:29;;;;;;;90.43;26.13;;;;;;;-0.54;100.00;101792.03;5013585;28;20497;-75
2023/12/07 05:49:58;;;;;;;86.35;27.73;;;;;;;-0.51;100.00;101783.41;4991381;28;20045;-75
2023/12/07 05:52:23;;;;;;;107.70;36.63;;;;;;;-0.50;100.00;101785.09;5010907;28;20022;-75
2023/12/07 05:54:48;;;;;;;113.32;40.80;;;;;;;-0.51;100.00;101786.81;5007666;28;20388;-75
2023/12/07 05:57:14;;;;;;;130.45;40.20;;;;;;;-0.51;100.00;101786.81;5016070;28;20416;-75
2023/12/07 05:59:41;;;;;;;127.75;40.60;;;;;;;-0.45;100.00;101783.19;5012411;28;20412;-75
2023/12/07 06:02:07;;;;;;;111.97;34.50;;;;;;;-0.47;100.00;101783.25;5009592;28;20639;-74
2023/12/07 06:04:32;;;;;;;123.07;33.40;;;;;;;-0.50;100.00;101777.44;5012759;28;20117;-76
2023/12/07 06:06:58;;;;;;;121.70;38.58;;;;;;;-0.45;100.00;101785.75;5010291;28;20038;-75
2023/12/07 06:09:23;;;;;;;116.45;34.70;;;;;;;-0.47;100.00;101782.41;4994686;28;20033;-75
2023/12/07 06:11:48;;;;;;;164.93;41.88;;;;;;;-0.38;100.00;101786.31;5014810;28;20493;-75
2023/12/07 06:14:14;;;;;;;121.53;34.47;;;;;;;-0.45;100.00;101781.47;4990261;28;20505;-75
2023/12/07 06:16:39;;;;;;;133.45;34.45;;;;;;;-0.43;100.00;101789.06;5010373;28;20595;-75
2023/12/07 06:19:05;;;;;;;132.00;33.33;;;;;;;-0.41;100.00;101788.09;5010752;28;20524;-75
2023/12/07 06:21:31;;;;;;;97.18;31.15;;;;;;;-0.44;100.00;101777.19;5012354;28;20026;-75
2023/12/07 06:23:56;;;;;;;104.00;31.48;;;;;;;-0.46;100.00;101768.78;5010879;28;20508;-75
2023/12/07 06:26:22;;;;;;;125.13;31.90;;;;;;;-0.55;100.00;101761.50;5010748;28;20064;-75
2023/12/07 06:28:48;;;;;;;148.68;32.05;;;;;;;-0.57;100.00;101764.09;5010428;28;20042;-75
2023/12/07 06:31:15;;;;;;;127.38;30.52;;;;;;;-0.62;100.00;101760.94;5009975;28;20080;-75
2023/12/07 06:33:41;;;;;;;121.70;31.77;;;;;;;-0.65;100.00;101766.13;5005318;28;20113;-74
2023/12/07 06:36:07;;;;;;;101.85;30.70;;;;;;;-0.54;100.00;101771.63;5010910;28;20413;-75
2023/12/07 06:38:32;;;;;;;96.00;30.05;;;;;;;-0.65;100.00;101772.06;5010807;28;20404;-74
2023/12/07 06:40:58;;;;;;;109.50;29.58;;;;;;;-0.65;100.00;101755.94;5014442;28;20045;-74
2023/12/07 06:43:23;;;;;;;113.97;29.48;;;;;;;-0.64;100.00;101753.34;4987493;28;20505;-74
2023/12/07 06:45:49;;;;;;;144.85;27.90;;;;;;;-0.64;100.00;101760.97;5013523;28;20033;-75
2023/12/07 06:48:14;;;;;;;132.35;29.30;;;;;;;-0.70;100.00;101750.19;4996923;28;20034;-75
2023/12/07 06:50:40;;;;;;;130.65;27.63;;;;;;;-0.67;100.00;101755.19;5009392;28;20037;-75
2023/12/07 06:53:05;;;;;;;143.05;28.75;;;;;;;-0.71;100.00;101759.56;4993701;28;20041;-75
2023/12/07 06:55:31;;;;;;;93.63;27.98;;;;;;;-0.82;100.00;101746.41;5005661;28;20034;-74
2023/12/07 06:57:57;;;;;;;152.40;27.13;;;;;;;-0.87;100.00;101738.09;5010734;28;20084;-74
2023/12/07 07:00:24;;;;;;;99.80;27.77;;;;;;;-0.79;100.00;101742.03;5009863;28;20033;-75
2023/12/07 07:02:50;;;;;;;102.95;27.40;;;;;;;-0.79;100.00;101743.75;5032701;28;20487;-74
2023/12/07 07:05:15;;;;;;;99.68;26.70;;;;;;;-0.77;100.00;101736.88;5007935;28;20045;-75
2023/12/07 07:07:41;;;;;;;76.28;26.42;;;;;;;-0.72;100.00;101739.22;5005917;28;20033;-75
2023/12/07 07:10:09;;;;;;;86.25;25.83;;;;;;;-0.68;100.00;101746.72;5008502;28;20655;-75
2023/12/07 07:12:35;;;;;;;78.78;26.60;;;;;;;-0.71;100.00;101751.09;5013232;28;20108;-74
2023/12/07 07:15:01;;;;;;;76.80;25.23;;;;;;;-0.73;100.00;101743.50;5007016;28;20069;-75
2023/12/07 07:17:28;;;;;;;96.25;27.40;;;;;;;-0.69;100.00;101745.03;5010389;28;20030;-75
2023/12/07 07:19:55;;;;;;;104.00;27.33;;;;;;;-0.64;100.00;101732.97;5011801;28;20038;-74
2023/12/07 07:22:20;;;;;;;84.85;27.55;;;;;;;-0.64;100.00;101732.97;5009194;28;20124;-74
2023/12/07 07:24:46;;;;;;;77.32;26.27;;;;;;;-0.68;100.00;101733.97;5011702;28;20037;-75
2023/12/07 07:27:11;;;;;;;117.47;30.77;;;;;;;-0.62;100.00;101735.44;5007270;28;20500;-75
2023/12/07 07:29:37;;;;;;;79.82;26.60;;;;;;;-0.62;100.00;101743.91;5016466;28;20033;-76
2023/12/07 07:32:02;;;;;;;76.53;26.27;;;;;;;-0.64;100.00;101742.31;5010160;28;20045;-74
2023/12/07 07:34:28;;;;;;;84.45;25.75;;;;;;;-0.63;100.00;101736.31;5006099;28;20041;-75
2023/12/07 07:36:53;;;;;;;71.57;27.00;;;;;;;-0.61;100.00;101740.47;5006272;28;20074;-75
2023/12/07 07:39:18;;;;;;;72.93;26.33;;;;;;;-0.61;100.00;101740.47;5014099;28;20038;-75
2023/12/07 07:41:44;;;;;;;93.10;34.58;;;;;;;-0.59;100.00;101743.78;4997114;28;20026;-75
2023/12/07 07:44:09;;;;;;;93.63;34.03;;;;;;;-0.53;100.00;101741.88;5012934;28;20042;-75
2023/12/07 07:46:35;;;;;;;76.60;26.75;;;;;;;-0.53;100.00;101745.25;5010269;28;20041;-75
2023/12/07 07:49:00;;;;;;;111.82;29.60;;;;;;;-0.53;100.00;101746.97;5012000;28;20041;-75
2023/12/07 07:51:26;;;;;;;76.70;26.05;;;;;;;-0.53;100.00;101747.78;5005697;28;20037;-74
2023/12/07 07:53:51;;;;;;;80.28;26.48;;;;;;;-0.53;100.00;101744.44;5013787;28;20057;-74
2023/12/07 07:56:17;;;;;;;72.85;25.90;;;;;;;-0.54;100.00;101748.72;5012662;28;20050;-75
2023/12/07 07:58:42;;;;;;;68.90;27.38;;;;;;;-0.55;100.00;101754.69;5008915;28;20030;-75
2023/12/07 08:01:08;;;;;;;84.05;28.55;;;;;;;-0.51;100.00;101752.84;5013172;28;20038;-75
2023/12/07 08:03:33;;;;;;;90.95;29.77;;;;;;;-0.48;100.00;101765.47;5016056;28;20041;-75
2023/12/07 08:05:59;;;;;;;97.00;30.10;;;;;;;-0.44;100.00;101767.81;5003505;28;20043;-74
2023/12/07 08:08:26;;;;;;;74.85;27.40;;;;;;;-0.48;100.00;101768.84;5008215;28;20023;-74
2023/12/07 08:10:52;;;;;;;79.60;27.23;;;;;;;-0.45;100.00;101766.19;5004147;28;20034;-74
2023/12/07 08:13:17;;;;;;;76.35;27.00;;;;;;;-0.50;100.00;101767.25;5011043;28;20512;-75
2023/12/07 08:15:43;;;;;;;89.35;28.45;;;;;;;-0.43;100.00;101766.13;5004513;28;20030;-74
2023/12/07 08:18:08;;;;;;;70.47;25.65;;;;;;;-0.46;100.00;101763.69;5009705;28;20071;-74
2023/12/07 08:20:34;;;;;;;77.90;26.20;;;;;;;-0.45;100.00;101761.09;5012318;28;20042;-74
2023/12/07 08:23:00;;;;;;;69.22;25.63;;;;;;;-0.44;100.00;101767.00;5006147;28;20042;-74
2023/12/07 08:25:25;;;;;;;73.53;25.35;;;;;;;-0.40;100.00;101768.53;5005952;28;20096;-73
2023/12/07 08:27:51;;;;;;;68.28;26.35;;;;;;;-0.34;100.00;101758.13;5013056;28;20034;-74
2023/12/07 08:30:18;;;;;;;92.72;26.45;;;;;;;-0.40;100.00;101763.44;4993497;28;20034;-74
2023/12/07 08:32:44;;;;;;;68.25;24.52;;;;;;;-0.48;100.00;101751.00;5007757;28;20030;-74
2023/12/07 08:35:09;;;;;;;83.25;25.08;;;;;;;-0.53;100.00;101754.63;5008000;28;20033;-74
2023/12/07 08:37:37;;;;;;;89.80;23.20;;;;;;;-0.52;100.00;101758.84;5004253;28;20041;-75
2023/12/07 08:40:03;;;;;;;71.88;22.92;;;;;;;-0.60;100.00;101754.06;5012017;28;20427;-74
2023/12/07 08:42:31;;;;;;;73.00;21.95;;;;;;;-0.62;100.00;101750.75;5015415;28;20026;-74
2023/12/07 08:44:56;;;;;;;116.72;22.73;;;;;;;-0.77;100.00;101749.63;5004114;28;20472;-74
2023/12/07 08:47:22;;;;;;;51.50;21.70;;;;;;;-0.76;100.00;101745.34;5009679;28;20030;-74
2023/12/07 08:49:47;;;;;;;48.95;21.02;;;;;;;-0.81;100.00;101740.41;5012115;28;20021;-74
2023/12/07 08:52:13;;;;;;;86.57;21.25;;;;;;;-0.83;100.00;101748.13;5008505;28;20034;-75
2023/12/07 08:54:38;;;;;;;40.90;18.48;;;;;;;-0.78;100.00;101742.84;5016678;28;20042;-75
2023/12/07 08:57:04;;;;;;;47.90;20.42;;;;;;;-0.82;100.00;101739.59;5011008;28;20034;-75
2023/12/07 08:59:32;;;;;;;45.58;21.65;;;;;;;-0.75;100.00;101737.66;5014093;28;20289;-75
2023/12/07 09:01:58;;;;;;;48.78;20.38;;;;;;;-0.77;100.00;101741.13;5012316;28;20057;-75
2023/12/07 09:04:23;;;;;;;48.40;20.80;;;;;;;-0.74;100.00;101744.38;5014146;28;20042;-75
2023/12/07 09:06:48;;;;;;;51.63;21.70;;;;;;;-0.67;100.00;101740.72;5012530;28;20042;-75
2023/12/07 09:09:14;;;;;;;46.33;20.35;;;;;;;-0.75;100.00;101737.66;4998180;28;20037;-75
2023/12/07 09:11:39;;;;;;;48.35;19.48;;;;;;;-0.73;100.00;101728.22;5025388;28;20030;-75
2023/12/07 09:14:05;;;;;;;47.03;20.13;;;;;;;-0.67;100.00;101730.53;5019109;28;20033;-75
2023/12/07 09:16:30;;;;;;;46.17;20.35;;;;;;;-0.73;100.00;101730.78;5013202;28;20420;-75
2023/12/07 09:18:56;;;;;;;43.80;19.60;;;;;;;-0.76;100.00;101728.34;5016913;28;20046;-75
2023/12/07 09:21:21;;;;;;;49.22;20.50;;;;;;;-0.73;100.00;101718.03;5016655;28;20040;-75
2023/12/07 09:23:47;;;;;;;53.75;21.98;;;;;;;-0.65;100.00;101733.00;5017098;28;20042;-75
2023/12/07 09:26:12;;;;;;;44.97;20.48;;;;;;;-0.61;100.00;101722.63;5016832;28;20040;-75
2023/12/07 09:28:39;;;;;;;51.60;21.48;;;;;;;-0.56;100.00;101724.19;5020725;28;20033;-75
2023/12/07 09:31:05;;;;;;;55.25;22.10;;;;;;;-0.46;100.00;101725.47;5019370;28;20030;-75
2023/12/07 09:33:30;;;;;;;45.60;20.40;;;;;;;-0.53;100.00;101721.50;5011031;28;20390;-75
2023/12/07 09:35:56;;;;;;;44.88;21.00;;;;;;;-0.50;100.00;101718.84;5013447;28;20069;-76
2023/12/07 09:38:21;;;;;;;47.60;21.63;;;;;;;-0.47;100.00;101716.16;5018185;28;20037;-75
2023/12/07 09:40:47;;;;;;;48.42;22.17;;;;;;;-0.47;100.00;101709.34;4993291;28;20034;-75
2023/12/07 09:43:13;;;;;;;45.92;21.80;;;;;;;-0.39;100.00;101706.50;5038042;28;20033;-75
2023/12/07 09:45:39;;;;;;;48.88;21.77;;;;;;;-0.45;100.00;101707.56;5010161;28;20388;-75
2023/12/07 09:48:04;;;;;;;51.70;23.25;;;;;;;-0.31;100.00;101703.63;4998922;28;20028;-75
2023/12/07 09:50:30;;;;;;;50.05;21.88;;;;;;;-0.32;100.00;101707.03;5007365;28;20125;-75
2023/12/07 09:52:57;;;;;;;50.08;22.60;;;;;;;-0.25;100.00;101708.47;5014560;28;20038;-75
2023/12/07 09:55:23;;;;;;;45.35;22.48;;;;;;;-0.24;100.00;101710.13;5009783;28;20065;-75
2023/12/07 09:57:50;;;;;;;49.33;21.52;;;;;;;-0.23;100.00;101707.53;5012490;28;20030;-75
2023/12/07 10:00:17;;;;;;;41.38;20.58;;;;;;;-0.20;100.00;101707.38;5017339;28;20030;-75
2023/12/07 10:02:46;;;;;;;47.00;20.83;;;;;;;-0.23;100.00;101691.38;5019490;28;20116;-75
2023/12/07 10:05:13;;;;;;;50.33;22.00;;;;;;;-0.19;100.00;101698.00;4990464;28;20035;-75
2023/12/07 10:07:48;;;;;;;49.90;23.52;;;;;;;-0.03;100.00;101699.00;5005439;28;20562;-75
2023/12/07 10:10:14;;;;;;;53.25;24.33;;;;;;;-0.05;100.00;101698.25;5015154;28;20034;-75
2023/12/07 10:12:58;;;;;;;47.38;22.13;;;;;;;0.09;100.00;101691.72;5008757;28;20080;-75
2023/12/07 10:15:25;;;;;;;50.95;22.63;;;;;;;0.07;100.00;101678.22;5009758;28;20034;-75
2023/12/07 10:17:58;;;;;;;47.55;21.25;;;;;;;0.17;100.00;101675.19;5016395;28;20037;-76
2023/12/07 10:20:25;;;;;;;47.72;21.52;;;;;;;0.21;100.00;101672.50;5013498;28;20037;-75
2023/12/07 10:23:04;;;;;;;49.42;22.02;;;;;;;0.35;100.00;101660.78;5015151;28;20397;-75
2023/12/07 10:25:36;;;;;;;49.05;20.58;;;;;;;0.45;100.00;101653.53;5018880;28;20038;-75
2023/12/07 10:28:06;;;;;;;45.17;20.60;;;;;;;0.50;100.00;101649.06;5011487;28;20030;-75
2023/12/07 10:30:32;;;;;;;44.35;19.42;;;;;;;0.54;100.00;101645.47;5008191;28;20041;-75
2023/12/07 10:32:57;;;;;;;44.90;19.35;;;;;;;0.51;100.00;101634.56;5012764;28;20416;-75
2023/12/07 10:35:23;;;;;;;48.20;20.52;;;;;;;0.51;100.00;101635.41;5000837;28;20145;-75
2023/12/07 10:37:48;;;;;;;46.60;19.35;;;;;;;0.59;100.00;101635.06;5002922;28;20038;-75
2023/12/07 10:40:14;;;;;;;43.05;18.98;;;;;;;0.66;100.00;101636.44;4989110;28;20038;-75
2023/12/07 10:42:41;;;;;;;47.00;20.63;;;;;;;0.69;100.00;101628.63;5010724;28;20037;-76
2023/12/07 10:45:09;;;;;;;42.72;18.80;;;;;;;0.78;100.00;101622.25;5013641;28;20075;-74
2023/12/07 10:47:37;;;;;;;46.20;19.33;;;;;;;0.81;100.00;101624.69;5008271;28;20033;-74
2023/12/07 10:50:06;;;;;;;50.40;20.08;;;;;;;0.87;100.00;101609.06;5016273;28;20033;-75
2023/12/07 10:52:34;;;;;;;45.03;19.55;;;;;;;0.94;100.00;101607.88;5011746;28;20045;-74
2023/12/07 10:55:07;;;;;;;45.28;19.17;;;;;;;0.94;100.00;101610.41;5014295;28;20049;-75